Crossgar, United Kingdom
Current Conditions -  °F | °C
As of 6:20 PM on Wednesday 28 Jan 2015 (Local Time) from EGAC Reporting Station
Snow Showers Snow Showers  
Wind Chill: 22°   Ceiling: 2800
Heat Index: 34°   Visibility: 6mi
Dew Point: 32°   Wind: 21mph
Humidity: 93%   Direction: 250°WSW
Pressure: 29.35"   Gusts: NA
Location:  54.4°N, 5.7°W
Report Text: EGAC 281820Z 25018KT 9999 -SHSN FEW010 SCT018 BKN028 01/M00 Q0994 RESHSN
Loading
Personal Weather Stations






























Interactive Weather Map New forecast layout! Learn more

10-Day Weather Forecast

Advertisements
Track Severe Weather on mobile